EDT,Max TemperatureF,Mean TemperatureF,Min TemperatureF,Max Dew PointF,MeanDew PointF,Min DewpointF,Max Humidity, Mean Humidity, Min Humidity, Max Sea Level PressureIn, Mean Sea Level PressureIn, Min Sea Level PressureIn, Max VisibilityMiles, Mean VisibilityMiles, Min VisibilityMiles, Max Wind SpeedMPH, Mean Wind SpeedMPH, Max Gust SpeedMPH,PrecipitationIn, CloudCover, Events, WindDirDegrees
2013-10-1,80,65,51,58,54,48,97,72,37,30.00,29.96,29.90,10,9,2,12,5,,0.01,0,,286
2013-10-2,82,67,53,61,58,52,97,73,45,30.01,29.95,29.91,10,9,4,15,3,25,0.00,0,,277
2013-10-3,78,66,53,58,53,46,97,68,32,30.12,30.08,30.02,10,9,5,8,2,,0.01,0,,259
2013-10-4,80,68,57,66,62,55,100,85,60,30.08,30.04,30.00,10,8,2,10,2,,0.00,2,Rain,197
2013-10-5,75,68,62,64,62,61,100,90,68,30.11,30.07,30.03,10,6,1,8,2,,0.01,7,,110
2013-10-6,68,64,63,66,63,62,100,94,93,30.15,30.11,30.07,8,4,1,9,4,,0.00,8,,124
2013-10-7,77,69,63,70,66,52,100,90,67,30.07,29.96,29.86,10,7,1,23,10,34,0.15,7,Rain,179
2013-10-8,66,58,50,52,45,40,86,63,38,30.33,30.20,29.98,10,10,10,20,8,26,0.00,0,,341
2013-10-9,64,58,53,48,46,40,80,66,54,30.41,30.36,30.30,10,10,10,9,4,17,0.00,1,,32
2013-10-10,66,60,54,58,53,47,88,79,70,30.29,30.20,30.10,10,10,10,8,6,18,0.02,6,Rain,28
2013-10-11,69,64,60,58,56,53,87,78,68,30.10,30.07,30.04,10,10,10,8,6,21,0.00,7,,35
2013-10-12,71,62,55,55,49,38,78,64,46,30.31,30.20,30.09,10,10,10,12,5,22,0.01,4,Rain,54
2013-10-13,64,56,46,51,48,43,89,76,55,30.40,30.36,30.29,10,10,10,8,4,,0.00,4,,52
2013-10-14,64,53,42,50,45,39,93,80,50,30.38,30.33,30.28,10,10,10,12,1,,0.01,0,,126
2013-10-15,70,55,41,53,45,39,96,77,40,30.27,30.21,30.15,10,10,10,9,2,,0.00,1,,117
2013-10-16,69,58,48,58,55,46,96,82,68,30.12,30.02,29.93,10,10,10,10,2,,0.00,5,,150
2013-10-17,72,66,60,61,60,57,97,88,68,29.93,29.86,29.74,10,9,5,13,5,17,0.00,6,,205
2013-10-18,68,57,46,63,50,41,94,69,42,29.98,29.82,29.68,10,10,6,17,11,26,0.04,2,Rain,269
2013-10-19,66,52,39,57,46,38,93,74,40,30.00,29.91,29.77,10,10,8,10,3,,0.01,3,Rain,187
2013-10-20,63,52,42,58,41,34,90,63,36,30.07,29.91,29.74,10,10,10,16,8,25,0.00,1,Rain,285
2013-10-21,64,50,37,48,40,35,93,64,36,30.16,30.10,30.02,10,10,10,12,3,18,0.00,0,,203
2013-10-22,66,57,46,52,47,41,93,67,49,30.01,29.85,29.75,10,10,7,15,7,22,0.00,1,,221
2013-10-23,52,46,39,43,38,33,86,74,49,29.81,29.72,29.62,10,10,10,9,2,,0.02,5,Rain,332
2013-10-24,55,46,37,37,30,24,89,57,31,29.99,29.88,29.74,10,10,10,16,7,24,0.00,1,,272
2013-10-25,53,44,34,35,28,27,82,59,37,30.22,30.10,30.00,10,10,10,15,7,23,0.00,2,,294
2013-10-26,55,43,32,38,32,28,96,61,40,30.22,30.10,29.92,10,10,10,20,6,29,0.00,1,,228
2013-10-27,59,47,37,36,32,29,70,52,35,30.12,29.97,29.87,10,10,10,16,8,25,0.00,2,Rain,269
2013-10-28,60,46,32,36,33,28,89,63,37,30.33,30.21,30.13,10,10,10,13,3,20,0.00,0,,244
2013-10-29,55,44,34,34,31,28,85,60,41,30.43,30.39,30.34,10,10,10,9,2,,0.00,3,,3
2013-10-30,61,48,37,53,43,32,90,76,57,30.35,30.27,30.21,10,10,2,9,2,17,0.00,5,,205
2013-10-31,64,56,48,61,53,46,96,88,75,30.25,30.12,29.87,10,7,2,18,4,25,0.01,7,Rain,180